GOI weather

Dabolim Airport
Vasco da Gama, Goa, India

Public forecast

Using degrees Celsius for public forecast. Weather courtesy of forecast.io.

METAR (pilot weather report)

Closest report is Belgaum Airport, 53.8 nm (99.7 km) ENE. Retrieved 2019/03/23 13:00 UTC (1 hour ago):

VOBM 231300Z 27008KT CAVOK 31/16 Q1014

TAF (pilot weather forecast)

Forecast is more than 12 hours old.

Retrieved 2016/04/03 00:00 UTC (3 years ago):

TAF VOGO 032100Z 0400/0506 27010KT 6000 FEW018 SCT090 BECMG 0418/0420 VRB03KT 5000 HZ/BR BECMG 0502/0504 27010KT 6000